Mount Holly, New Jersey
Current Conditions -  °F | °C
As of 9:54 AM on Friday 19 Dec 2014 (Local Time) from KVAY Reporting Station
Overcast Overcast  
Wind Chill: 31°   Ceiling: 3500
Heat Index: 38°   Visibility: 10mi
Dew Point: 25°   Wind: 9mph
Humidity: 60%   Direction: 300°WNW
Pressure: 30.08"   Gusts: NA
Location:  39.99°N, 74.79°W
Report Text: KVAY 191454Z AUTO 30008KT 10SM OVC035 03/M04 A3008 RMK AO2 SLP187 T00331039 51012
Loading
Personal Weather Stations






























Interactive Weather Map New forecast layout! Learn more

10-Day Weather Forecast

Advertisements
Track Severe Weather on mobile